sensor_id;sensor_type;location;lat;lon;timestamp;P1;durP1;ratioP1;P2;durP2;ratioP2
23360;SDS011;11852;50.082;18.554;2023-05-14T00:00:55;14.0;;;10.0;;
23360;SDS011;11852;50.082;18.554;2023-05-14T00:02:02;16.0;;;9.0;;
23360;SDS011;11852;50.082;18.554;2023-05-14T00:03:09;14.0;;;10.0;;
23360;SDS011;11852;50.082;18.554;2023-05-14T00:04:16;14.0;;;9.0;;
23360;SDS011;11852;50.082;18.554;2023-05-14T00:05:24;15.0;;;9.0;;
23360;SDS011;11852;50.082;18.554;2023-05-14T00:06:31;13.0;;;9.0;;
23360;SDS011;11852;50.082;18.554;2023-05-14T00:07:38;13.0;;;8.0;;
23360;SDS011;11852;50.082;18.554;2023-05-14T00:08:48;14.0;;;9.0;;
23360;SDS011;11852;50.082;18.554;2023-05-14T00:09:55;16.0;;;9.0;;
23360;SDS011;11852;50.082;18.554;2023-05-14T00:11:02;16.0;;;10.0;;
23360;SDS011;11852;50.082;18.554;2023-05-14T00:12:09;14.0;;;9.0;;
23360;SDS011;11852;50.082;18.554;2023-05-14T00:13:16;14.0;;;9.0;;
23360;SDS011;11852;50.082;18.554;2023-05-14T00:14:23;15.0;;;10.0;;
23360;SDS011;11852;50.082;18.554;2023-05-14T00:15:30;16.0;;;10.0;;
23360;SDS011;11852;50.082;18.554;2023-05-14T00:16:38;14.0;;;10.0;;
23360;SDS011;11852;50.082;18.554;2023-05-14T00:17:45;14.0;;;9.0;;
23360;SDS011;11852;50.082;18.554;2023-05-14T00:18:52;15.0;;;10.0;;
23360;SDS011;11852;50.082;18.554;2023-05-14T00:19:59;14.0;;;10.0;;
23360;SDS011;11852;50.082;18.554;2023-05-14T00:21:06;16.0;;;9.0;;
23360;SDS011;11852;50.082;18.554;2023-05-14T00:22:13;17.0;;;10.0;;
23360;SDS011;11852;50.082;18.554;2023-05-14T00:23:21;15.0;;;10.0;;
23360;SDS011;11852;50.082;18.554;2023-05-14T00:24:28;15.0;;;10.0;;
23360;SDS011;11852;50.082;18.554;2023-05-14T00:25:35;14.0;;;10.0;;
23360;SDS011;11852;50.082;18.554;2023-05-14T00:26:41;15.0;;;10.0;;
23360;SDS011;11852;50.082;18.554;2023-05-14T00:27:48;17.0;;;10.0;;
23360;SDS011;11852;50.082;18.554;2023-05-14T00:28:55;14.0;;;9.0;;
23360;SDS011;11852;50.082;18.554;2023-05-14T00:30:03;15.0;;;10.0;;
23360;SDS011;11852;50.082;18.554;2023-05-14T00:31:13;16.0;;;10.0;;
23360;SDS011;11852;50.082;18.554;2023-05-14T00:32:20;15.0;;;10.0;;
23360;SDS011;11852;50.082;18.554;2023-05-14T00:33:27;16.0;;;10.0;;
23360;SDS011;11852;50.082;18.554;2023-05-14T00:34:34;15.0;;;10.0;;
23360;SDS011;11852;50.082;18.554;2023-05-14T00:35:40;15.0;;;10.0;;
23360;SDS011;11852;50.082;18.554;2023-05-14T00:36:49;16.0;;;11.0;;
23360;SDS011;11852;50.082;18.554;2023-05-14T00:37:54;15.0;;;10.0;;
23360;SDS011;11852;50.082;18.554;2023-05-14T00:39:01;17.0;;;11.0;;
23360;SDS011;11852;50.082;18.554;2023-05-14T00:40:08;17.0;;;11.0;;
23360;SDS011;11852;50.082;18.554;2023-05-14T00:41:15;14.0;;;10.0;;
23360;SDS011;11852;50.082;18.554;2023-05-14T00:42:23;15.0;;;11.0;;
23360;SDS011;11852;50.082;18.554;2023-05-14T00:43:29;17.0;;;10.0;;
23360;SDS011;11852;50.082;18.554;2023-05-14T00:44:37;15.0;;;10.0;;
23360;SDS011;11852;50.082;18.554;2023-05-14T00:45:44;15.0;;;11.0;;
23360;SDS011;11852;50.082;18.554;2023-05-14T00:46:51;16.0;;;11.0;;
23360;SDS011;11852;50.082;18.554;2023-05-14T00:47:58;16.0;;;9.0;;
23360;SDS011;11852;50.082;18.554;2023-05-14T00:49:05;14.0;;;9.0;;
23360;SDS011;11852;50.082;18.554;2023-05-14T00:50:12;15.0;;;9.0;;
23360;SDS011;11852;50.082;18.554;2023-05-14T00:51:19;14.0;;;10.0;;
23360;SDS011;11852;50.082;18.554;2023-05-14T00:52:30;15.0;;;10.0;;
23360;SDS011;11852;50.082;18.554;2023-05-14T00:53:43;14.0;;;9.0;;
23360;SDS011;11852;50.082;18.554;2023-05-14T00:54:49;14.0;;;9.0;;
23360;SDS011;11852;50.082;18.554;2023-05-14T00:55:59;15.0;;;10.0;;
23360;SDS011;11852;50.082;18.554;2023-05-14T00:57:06;14.0;;;9.0;;
23360;SDS011;11852;50.082;18.554;2023-05-14T00:58:13;14.0;;;9.0;;
23360;SDS011;11852;50.082;18.554;2023-05-14T00:59:24;15.0;;;10.0;;
23360;SDS011;11852;50.082;18.554;2023-05-14T01:00:30;12.0;;;8.0;;
23360;SDS011;11852;50.082;18.554;2023-05-14T01:01:37;13.0;;;8.0;;
23360;SDS011;11852;50.082;18.554;2023-05-14T01:02:45;14.0;;;9.0;;
23360;SDS011;11852;50.082;18.554;2023-05-14T01:03:52;16.0;;;9.0;;
23360;SDS011;11852;50.082;18.554;2023-05-14T01:04:59;14.0;;;10.0;;
23360;SDS011;11852;50.082;18.554;2023-05-14T01:11:06;14.0;;;9.0;;
23360;SDS011;11852;50.082;18.554;2023-05-14T01:13:35;17.0;;;11.0;;
23360;SDS011;11852;50.082;18.554;2023-05-14T01:14:43;15.0;;;10.0;;
23360;SDS011;11852;50.082;18.554;2023-05-14T01:15:46;16.0;;;10.0;;
23360;SDS011;11852;50.082;18.554;2023-05-14T01:16:55;16.0;;;10.0;;
23360;SDS011;11852;50.082;18.554;2023-05-14T01:18:04;16.0;;;10.0;;
23360;SDS011;11852;50.082;18.554;2023-05-14T01:19:16;15.0;;;10.0;;
23360;SDS011;11852;50.082;18.554;2023-05-14T01:20:17;16.0;;;11.0;;
23360;SDS011;11852;50.082;18.554;2023-05-14T01:22:36;14.0;;;9.0;;
23360;SDS011;11852;50.082;18.554;2023-05-14T01:23:43;16.0;;;9.0;;
23360;SDS011;11852;50.082;18.554;2023-05-14T01:24:51;14.0;;;9.0;;
23360;SDS011;11852;50.082;18.554;2023-05-14T01:25:57;14.0;;;9.0;;
23360;SDS011;11852;50.082;18.554;2023-05-14T01:28:24;15.0;;;8.0;;
23360;SDS011;11852;50.082;18.554;2023-05-14T01:29:29;15.0;;;8.0;;
23360;SDS011;11852;50.082;18.554;2023-05-14T01:30:36;15.0;;;9.0;;
23360;SDS011;11852;50.082;18.554;2023-05-14T01:31:43;14.0;;;9.0;;
23360;SDS011;11852;50.082;18.554;2023-05-14T01:32:50;16.0;;;9.0;;
23360;SDS011;11852;50.082;18.554;2023-05-14T01:33:57;15.0;;;10.0;;
23360;SDS011;11852;50.082;18.554;2023-05-14T01:35:04;15.0;;;10.0;;
23360;SDS011;11852;50.082;18.554;2023-05-14T01:36:12;14.0;;;9.0;;
23360;SDS011;11852;50.082;18.554;2023-05-14T01:37:18;16.0;;;10.0;;
23360;SDS011;11852;50.082;18.554;2023-05-14T01:38:25;17.0;;;10.0;;
23360;SDS011;11852;50.082;18.554;2023-05-14T01:39:32;15.0;;;10.0;;
23360;SDS011;11852;50.082;18.554;2023-05-14T01:40:39;14.0;;;10.0;;
23360;SDS011;11852;50.082;18.554;2023-05-14T01:41:47;15.0;;;10.0;;
23360;SDS011;11852;50.082;18.554;2023-05-14T01:42:53;15.0;;;9.0;;
23360;SDS011;11852;50.082;18.554;2023-05-14T01:44:01;20.0;;;10.0;;
23360;SDS011;11852;50.082;18.554;2023-05-14T01:45:09;15.0;;;10.0;;
23360;SDS011;11852;50.082;18.554;2023-05-14T01:46:19;15.0;;;9.0;;
23360;SDS011;11852;50.082;18.554;2023-05-14T01:47:25;15.0;;;9.0;;
23360;SDS011;11852;50.082;18.554;2023-05-14T01:48:32;14.0;;;9.0;;
23360;SDS011;11852;50.082;18.554;2023-05-14T01:49:39;17.0;;;10.0;;
23360;SDS011;11852;50.082;18.554;2023-05-14T01:50:46;16.0;;;9.0;;
23360;SDS011;11852;50.082;18.554;2023-05-14T01:51:53;14.0;;;9.0;;
23360;SDS011;11852;50.082;18.554;2023-05-14T01:53:00;14.0;;;10.0;;
23360;SDS011;11852;50.082;18.554;2023-05-14T01:54:12;15.0;;;10.0;;
23360;SDS011;11852;50.082;18.554;2023-05-14T01:55:19;15.0;;;10.0;;
23360;SDS011;11852;50.082;18.554;2023-05-14T01:56:26;15.0;;;10.0;;
23360;SDS011;11852;50.082;18.554;2023-05-14T01:57:33;15.0;;;10.0;;
23360;SDS011;11852;50.082;18.554;2023-05-14T01:58:40;15.0;;;10.0;;
23360;SDS011;11852;50.082;18.554;2023-05-14T01:59:47;16.0;;;10.0;;
23360;SDS011;11852;50.082;18.554;2023-05-14T02:00:54;14.0;;;10.0;;
23360;SDS011;11852;50.082;18.554;2023-05-14T02:02:04;15.0;;;11.0;;
23360;SDS011;11852;50.082;18.554;2023-05-14T02:03:11;15.0;;;10.0;;
23360;SDS011;11852;50.082;18.554;2023-05-14T02:04:18;16.0;;;11.0;;
23360;SDS011;11852;50.082;18.554;2023-05-14T02:05:26;16.0;;;10.0;;
23360;SDS011;11852;50.082;18.554;2023-05-14T02:06:33;17.0;;;10.0;;
23360;SDS011;11852;50.082;18.554;2023-05-14T02:07:40;16.0;;;10.0;;
23360;SDS011;11852;50.082;18.554;2023-05-14T02:08:47;16.0;;;10.0;;
23360;SDS011;11852;50.082;18.554;2023-05-14T02:09:54;16.0;;;10.0;;
23360;SDS011;11852;50.082;18.554;2023-05-14T02:11:01;18.0;;;11.0;;
23360;SDS011;11852;50.082;18.554;2023-05-14T02:12:08;17.0;;;10.0;;
23360;SDS011;11852;50.082;18.554;2023-05-14T02:13:16;16.0;;;10.0;;
23360;SDS011;11852;50.082;18.554;2023-05-14T02:14:23;15.0;;;10.0;;
23360;SDS011;11852;50.082;18.554;2023-05-14T02:15:30;16.0;;;10.0;;
23360;SDS011;11852;50.082;18.554;2023-05-14T02:16:37;15.0;;;10.0;;
23360;SDS011;11852;50.082;18.554;2023-05-14T02:17:44;19.0;;;11.0;;
23360;SDS011;11852;50.082;18.554;2023-05-14T02:18:51;17.0;;;11.0;;
23360;SDS011;11852;50.082;18.554;2023-05-14T02:19:58;17.0;;;11.0;;
23360;SDS011;11852;50.082;18.554;2023-05-14T02:21:10;19.0;;;10.0;;
23360;SDS011;11852;50.082;18.554;2023-05-14T02:22:17;18.0;;;12.0;;
23360;SDS011;11852;50.082;18.554;2023-05-14T02:23:24;18.0;;;11.0;;
23360;SDS011;11852;50.082;18.554;2023-05-14T02:24:31;19.0;;;12.0;;
23360;SDS011;11852;50.082;18.554;2023-05-14T02:25:38;20.0;;;11.0;;
23360;SDS011;11852;50.082;18.554;2023-05-14T02:26:45;18.0;;;11.0;;
23360;SDS011;11852;50.082;18.554;2023-05-14T02:27:52;20.0;;;12.0;;
23360;SDS011;11852;50.082;18.554;2023-05-14T02:28:59;19.0;;;12.0;;
23360;SDS011;11852;50.082;18.554;2023-05-14T02:30:07;18.0;;;12.0;;
23360;SDS011;11852;50.082;18.554;2023-05-14T02:31:14;17.0;;;11.0;;
23360;SDS011;11852;50.082;18.554;2023-05-14T02:32:21;22.0;;;12.0;;
23360;SDS011;11852;50.082;18.554;2023-05-14T02:33:33;19.0;;;12.0;;
23360;SDS011;11852;50.082;18.554;2023-05-14T02:34:40;19.0;;;12.0;;
23360;SDS011;11852;50.082;18.554;2023-05-14T02:35:47;18.0;;;12.0;;
23360;SDS011;11852;50.082;18.554;2023-05-14T02:36:54;20.0;;;12.0;;
23360;SDS011;11852;50.082;18.554;2023-05-14T02:38:04;19.0;;;12.0;;
23360;SDS011;11852;50.082;18.554;2023-05-14T02:39:11;18.0;;;12.0;;
23360;SDS011;11852;50.082;18.554;2023-05-14T02:40:18;19.0;;;11.0;;
23360;SDS011;11852;50.082;18.554;2023-05-14T02:41:26;17.0;;;10.0;;
23360;SDS011;11852;50.082;18.554;2023-05-14T02:42:33;17.0;;;11.0;;
23360;SDS011;11852;50.082;18.554;2023-05-14T02:43:39;17.0;;;11.0;;
23360;SDS011;11852;50.082;18.554;2023-05-14T02:44:48;18.0;;;12.0;;
23360;SDS011;11852;50.082;18.554;2023-05-14T02:45:55;18.0;;;12.0;;
23360;SDS011;11852;50.082;18.554;2023-05-14T02:47:02;17.0;;;11.0;;
23360;SDS011;11852;50.082;18.554;2023-05-14T02:48:09;17.0;;;11.0;;
23360;SDS011;11852;50.082;18.554;2023-05-14T02:49:16;20.0;;;12.0;;
23360;SDS011;11852;50.082;18.554;2023-05-14T02:50:23;16.0;;;11.0;;
23360;SDS011;11852;50.082;18.554;2023-05-14T02:51:30;18.0;;;11.0;;
23360;SDS011;11852;50.082;18.554;2023-05-14T02:52:37;18.0;;;12.0;;
23360;SDS011;11852;50.082;18.554;2023-05-14T02:53:44;20.0;;;12.0;;
23360;SDS011;11852;50.082;18.554;2023-05-14T02:54:51;21.0;;;12.0;;
23360;SDS011;11852;50.082;18.554;2023-05-14T02:56:03;17.0;;;12.0;;
23360;SDS011;11852;50.082;18.554;2023-05-14T02:57:10;18.0;;;12.0;;
23360;SDS011;11852;50.082;18.554;2023-05-14T02:58:17;17.0;;;11.0;;
23360;SDS011;11852;50.082;18.554;2023-05-14T02:59:24;19.0;;;11.0;;
23360;SDS011;11852;50.082;18.554;2023-05-14T03:00:31;16.0;;;11.0;;
23360;SDS011;11852;50.082;18.554;2023-05-14T03:01:39;18.0;;;11.0;;
23360;SDS011;11852;50.082;18.554;2023-05-14T03:02:46;19.0;;;11.0;;
23360;SDS011;11852;50.082;18.554;2023-05-14T03:03:53;18.0;;;11.0;;
23360;SDS011;11852;50.082;18.554;2023-05-14T03:05:00;16.0;;;11.0;;
23360;SDS011;11852;50.082;18.554;2023-05-14T03:06:07;18.0;;;12.0;;
23360;SDS011;11852;50.082;18.554;2023-05-14T03:07:13;19.0;;;12.0;;
23360;SDS011;11852;50.082;18.554;2023-05-14T03:08:21;18.0;;;12.0;;
23360;SDS011;11852;50.082;18.554;2023-05-14T03:09:28;18.0;;;12.0;;
23360;SDS011;11852;50.082;18.554;2023-05-14T03:10:34;18.0;;;12.0;;
23360;SDS011;11852;50.082;18.554;2023-05-14T03:11:41;19.0;;;12.0;;
23360;SDS011;11852;50.082;18.554;2023-05-14T03:12:48;20.0;;;13.0;;
23360;SDS011;11852;50.082;18.554;2023-05-14T03:13:55;21.0;;;12.0;;
23360;SDS011;11852;50.082;18.554;2023-05-14T03:15:02;18.0;;;12.0;;
23360;SDS011;11852;50.082;18.554;2023-05-14T03:16:09;18.0;;;12.0;;
23360;SDS011;11852;50.082;18.554;2023-05-14T03:17:19;18.0;;;13.0;;
23360;SDS011;11852;50.082;18.554;2023-05-14T03:18:26;19.0;;;12.0;;
23360;SDS011;11852;50.082;18.554;2023-05-14T03:19:34;18.0;;;12.0;;
23360;SDS011;11852;50.082;18.554;2023-05-14T03:20:41;18.0;;;12.0;;
23360;SDS011;11852;50.082;18.554;2023-05-14T03:21:48;19.0;;;13.0;;
23360;SDS011;11852;50.082;18.554;2023-05-14T03:22:55;19.0;;;12.0;;
23360;SDS011;11852;50.082;18.554;2023-05-14T03:24:02;17.0;;;11.0;;
23360;SDS011;11852;50.082;18.554;2023-05-14T03:25:09;17.0;;;12.0;;
23360;SDS011;11852;50.082;18.554;2023-05-14T03:26:16;17.0;;;12.0;;
23360;SDS011;11852;50.082;18.554;2023-05-14T03:27:26;18.0;;;11.0;;
23360;SDS011;11852;50.082;18.554;2023-05-14T03:28:33;18.0;;;11.0;;
23360;SDS011;11852;50.082;18.554;2023-05-14T03:29:40;19.0;;;13.0;;
23360;SDS011;11852;50.082;18.554;2023-05-14T03:30:47;16.0;;;12.0;;
23360;SDS011;11852;50.082;18.554;2023-05-14T03:31:55;18.0;;;12.0;;
23360;SDS011;11852;50.082;18.554;2023-05-14T03:33:02;19.0;;;12.0;;
23360;SDS011;11852;50.082;18.554;2023-05-14T03:34:09;20.0;;;13.0;;
23360;SDS011;11852;50.082;18.554;2023-05-14T03:35:19;17.0;;;12.0;;
23360;SDS011;11852;50.082;18.554;2023-05-14T03:36:26;21.0;;;11.0;;
23360;SDS011;11852;50.082;18.554;2023-05-14T03:37:33;19.0;;;12.0;;
23360;SDS011;11852;50.082;18.554;2023-05-14T03:38:40;19.0;;;12.0;;
23360;SDS011;11852;50.082;18.554;2023-05-14T03:39:47;21.0;;;12.0;;
23360;SDS011;11852;50.082;18.554;2023-05-14T03:40:54;19.0;;;12.0;;
23360;SDS011;11852;50.082;18.554;2023-05-14T03:42:01;18.0;;;12.0;;
23360;SDS011;11852;50.082;18.554;2023-05-14T03:43:08;21.0;;;13.0;;
23360;SDS011;11852;50.082;18.554;2023-05-14T03:44:14;18.0;;;12.0;;
23360;SDS011;11852;50.082;18.554;2023-05-14T03:45:22;20.0;;;12.0;;
23360;SDS011;11852;50.082;18.554;2023-05-14T03:46:30;18.0;;;13.0;;
23360;SDS011;11852;50.082;18.554;2023-05-14T03:47:37;18.0;;;13.0;;
23360;SDS011;11852;50.082;18.554;2023-05-14T03:48:44;20.0;;;12.0;;
23360;SDS011;11852;50.082;18.554;2023-05-14T03:49:51;18.0;;;12.0;;
23360;SDS011;11852;50.082;18.554;2023-05-14T03:50:58;17.0;;;11.0;;
23360;SDS011;11852;50.082;18.554;2023-05-14T03:52:05;18.0;;;11.0;;
23360;SDS011;11852;50.082;18.554;2023-05-14T03:53:12;17.0;;;11.0;;
23360;SDS011;11852;50.082;18.554;2023-05-14T03:54:20;16.0;;;11.0;;
23360;SDS011;11852;50.082;18.554;2023-05-14T03:55:27;16.0;;;11.0;;
23360;SDS011;11852;50.082;18.554;2023-05-14T03:56:34;16.0;;;12.0;;
23360;SDS011;11852;50.082;18.554;2023-05-14T03:57:41;18.0;;;11.0;;
23360;SDS011;11852;50.082;18.554;2023-05-14T03:58:48;17.0;;;11.0;;
23360;SDS011;11852;50.082;18.554;2023-05-14T03:59:55;17.0;;;11.0;;
23360;SDS011;11852;50.082;18.554;2023-05-14T04:01:01;19.0;;;12.0;;
23360;SDS011;11852;50.082;18.554;2023-05-14T04:02:09;15.0;;;11.0;;
23360;SDS011;11852;50.082;18.554;2023-05-14T04:03:15;17.0;;;11.0;;
23360;SDS011;11852;50.082;18.554;2023-05-14T04:04:22;16.0;;;11.0;;
23360;SDS011;11852;50.082;18.554;2023-05-14T04:05:29;16.0;;;11.0;;
23360;SDS011;11852;50.082;18.554;2023-05-14T04:06:36;15.0;;;11.0;;
23360;SDS011;11852;50.082;18.554;2023-05-14T04:07:43;17.0;;;12.0;;
23360;SDS011;11852;50.082;18.554;2023-05-14T04:08:51;17.0;;;11.0;;
23360;SDS011;11852;50.082;18.554;2023-05-14T04:10:01;17.0;;;11.0;;
23360;SDS011;11852;50.082;18.554;2023-05-14T04:11:07;15.0;;;11.0;;
23360;SDS011;11852;50.082;18.554;2023-05-14T04:12:17;19.0;;;12.0;;
23360;SDS011;11852;50.082;18.554;2023-05-14T04:13:24;16.0;;;11.0;;
23360;SDS011;11852;50.082;18.554;2023-05-14T04:14:31;17.0;;;11.0;;
23360;SDS011;11852;50.082;18.554;2023-05-14T04:15:41;17.0;;;11.0;;
23360;SDS011;11852;50.082;18.554;2023-05-14T04:16:48;16.0;;;11.0;;
23360;SDS011;11852;50.082;18.554;2023-05-14T04:17:55;16.0;;;11.0;;
23360;SDS011;11852;50.082;18.554;2023-05-14T04:19:02;17.0;;;10.0;;
23360;SDS011;11852;50.082;18.554;2023-05-14T04:20:09;16.0;;;11.0;;
23360;SDS011;11852;50.082;18.554;2023-05-14T04:21:16;16.0;;;10.0;;
23360;SDS011;11852;50.082;18.554;2023-05-14T04:22:23;17.0;;;11.0;;
23360;SDS011;11852;50.082;18.554;2023-05-14T04:23:31;16.0;;;11.0;;
23360;SDS011;11852;50.082;18.554;2023-05-14T04:24:38;16.0;;;11.0;;
23360;SDS011;11852;50.082;18.554;2023-05-14T04:25:45;18.0;;;11.0;;
23360;SDS011;11852;50.082;18.554;2023-05-14T04:26:52;19.0;;;11.0;;
23360;SDS011;11852;50.082;18.554;2023-05-14T04:27:59;17.0;;;11.0;;
23360;SDS011;11852;50.082;18.554;2023-05-14T04:29:05;18.0;;;10.0;;
23360;SDS011;11852;50.082;18.554;2023-05-14T04:30:15;17.0;;;11.0;;
23360;SDS011;11852;50.082;18.554;2023-05-14T04:31:22;18.0;;;11.0;;
23360;SDS011;11852;50.082;18.554;2023-05-14T04:32:29;18.0;;;10.0;;
23360;SDS011;11852;50.082;18.554;2023-05-14T04:33:36;18.0;;;11.0;;
23360;SDS011;11852;50.082;18.554;2023-05-14T04:34:43;17.0;;;10.0;;
23360;SDS011;11852;50.082;18.554;2023-05-14T04:35:50;16.0;;;11.0;;
23360;SDS011;11852;50.082;18.554;2023-05-14T04:36:57;16.0;;;10.0;;
23360;SDS011;11852;50.082;18.554;2023-05-14T04:38:04;17.0;;;11.0;;
23360;SDS011;11852;50.082;18.554;2023-05-14T04:39:19;14.0;;;10.0;;
23360;SDS011;11852;50.082;18.554;2023-05-14T04:40:26;16.0;;;10.0;;
23360;SDS011;11852;50.082;18.554;2023-05-14T04:41:33;19.0;;;11.0;;
23360;SDS011;11852;50.082;18.554;2023-05-14T04:42:41;15.0;;;11.0;;
23360;SDS011;11852;50.082;18.554;2023-05-14T04:43:48;15.0;;;10.0;;
23360;SDS011;11852;50.082;18.554;2023-05-14T04:44:55;16.0;;;10.0;;
23360;SDS011;11852;50.082;18.554;2023-05-14T04:46:02;17.0;;;11.0;;
23360;SDS011;11852;50.082;18.554;2023-05-14T04:47:09;16.0;;;11.0;;
23360;SDS011;11852;50.082;18.554;2023-05-14T04:48:16;15.0;;;11.0;;
23360;SDS011;11852;50.082;18.554;2023-05-14T04:49:23;17.0;;;11.0;;
23360;SDS011;11852;50.082;18.554;2023-05-14T04:50:30;18.0;;;11.0;;
23360;SDS011;11852;50.082;18.554;2023-05-14T04:51:37;19.0;;;13.0;;
23360;SDS011;11852;50.082;18.554;2023-05-14T04:52:44;24.0;;;16.0;;
23360;SDS011;11852;50.082;18.554;2023-05-14T04:53:54;20.0;;;13.0;;
23360;SDS011;11852;50.082;18.554;2023-05-14T04:55:01;18.0;;;12.0;;
23360;SDS011;11852;50.082;18.554;2023-05-14T04:56:08;18.0;;;11.0;;
23360;SDS011;11852;50.082;18.554;2023-05-14T04:57:15;18.0;;;11.0;;
23360;SDS011;11852;50.082;18.554;2023-05-14T04:58:27;18.0;;;11.0;;
23360;SDS011;11852;50.082;18.554;2023-05-14T04:59:34;17.0;;;12.0;;
23360;SDS011;11852;50.082;18.554;2023-05-14T05:00:41;15.0;;;10.0;;
23360;SDS011;11852;50.082;18.554;2023-05-14T05:01:47;17.0;;;11.0;;
23360;SDS011;11852;50.082;18.554;2023-05-14T05:02:57;17.0;;;11.0;;
23360;SDS011;11852;50.082;18.554;2023-05-14T05:04:04;15.0;;;10.0;;
23360;SDS011;11852;50.082;18.554;2023-05-14T05:05:11;16.0;;;11.0;;
23360;SDS011;11852;50.082;18.554;2023-05-14T05:06:18;17.0;;;11.0;;
23360;SDS011;11852;50.082;18.554;2023-05-14T05:07:28;16.0;;;10.0;;
23360;SDS011;11852;50.082;18.554;2023-05-14T05:08:36;15.0;;;10.0;;
23360;SDS011;11852;50.082;18.554;2023-05-14T05:09:43;16.0;;;10.0;;
23360;SDS011;11852;50.082;18.554;2023-05-14T05:10:50;16.0;;;11.0;;
23360;SDS011;11852;50.082;18.554;2023-05-14T05:11:57;17.0;;;11.0;;
23360;SDS011;11852;50.082;18.554;2023-05-14T05:13:16;17.0;;;10.0;;
23360;SDS011;11852;50.082;18.554;2023-05-14T05:14:22;15.0;;;10.0;;
23360;SDS011;11852;50.082;18.554;2023-05-14T05:15:29;17.0;;;11.0;;
23360;SDS011;11852;50.082;18.554;2023-05-14T05:16:36;15.0;;;10.0;;
23360;SDS011;11852;50.082;18.554;2023-05-14T05:17:43;14.0;;;10.0;;
23360;SDS011;11852;50.082;18.554;2023-05-14T05:18:50;14.0;;;9.0;;
23360;SDS011;11852;50.082;18.554;2023-05-14T05:19:58;19.0;;;11.0;;
23360;SDS011;11852;50.082;18.554;2023-05-14T05:21:05;15.0;;;11.0;;
23360;SDS011;11852;50.082;18.554;2023-05-14T05:22:12;18.0;;;12.0;;
23360;SDS011;11852;50.082;18.554;2023-05-14T05:23:19;18.0;;;12.0;;
23360;SDS011;11852;50.082;18.554;2023-05-14T05:24:29;18.0;;;11.0;;
23360;SDS011;11852;50.082;18.554;2023-05-14T05:25:36;15.0;;;10.0;;
23360;SDS011;11852;50.082;18.554;2023-05-14T05:26:42;17.0;;;11.0;;
23360;SDS011;11852;50.082;18.554;2023-05-14T05:27:50;15.0;;;10.0;;
23360;SDS011;11852;50.082;18.554;2023-05-14T05:28:58;14.0;;;9.0;;
23360;SDS011;11852;50.082;18.554;2023-05-14T05:30:20;17.0;;;10.0;;
23360;SDS011;11852;50.082;18.554;2023-05-14T05:31:27;15.0;;;10.0;;
23360;SDS011;11852;50.082;18.554;2023-05-14T05:32:33;14.0;;;10.0;;
23360;SDS011;11852;50.082;18.554;2023-05-14T05:33:40;15.0;;;9.0;;
23360;SDS011;11852;50.082;18.554;2023-05-14T05:34:48;17.0;;;9.0;;
23360;SDS011;11852;50.082;18.554;2023-05-14T05:35:54;15.0;;;10.0;;
23360;SDS011;11852;50.082;18.554;2023-05-14T05:37:05;16.0;;;10.0;;
23360;SDS011;11852;50.082;18.554;2023-05-14T05:38:14;14.0;;;9.0;;
23360;SDS011;11852;50.082;18.554;2023-05-14T05:39:21;15.0;;;10.0;;
23360;SDS011;11852;50.082;18.554;2023-05-14T05:40:30;15.0;;;9.0;;
23360;SDS011;11852;50.082;18.554;2023-05-14T05:41:37;15.0;;;10.0;;
23360;SDS011;11852;50.082;18.554;2023-05-14T05:42:44;15.0;;;10.0;;
23360;SDS011;11852;50.082;18.554;2023-05-14T05:43:51;15.0;;;9.0;;
23360;SDS011;11852;50.082;18.554;2023-05-14T05:44:58;15.0;;;10.0;;
23360;SDS011;11852;50.082;18.554;2023-05-14T05:46:05;14.0;;;10.0;;
23360;SDS011;11852;50.082;18.554;2023-05-14T05:47:12;15.0;;;10.0;;
23360;SDS011;11852;50.082;18.554;2023-05-14T05:48:19;16.0;;;11.0;;
23360;SDS011;11852;50.082;18.554;2023-05-14T05:49:29;15.0;;;10.0;;
23360;SDS011;11852;50.082;18.554;2023-05-14T05:50:36;16.0;;;10.0;;
23360;SDS011;11852;50.082;18.554;2023-05-14T05:51:43;15.0;;;10.0;;
23360;SDS011;11852;50.082;18.554;2023-05-14T05:52:51;15.0;;;10.0;;
23360;SDS011;11852;50.082;18.554;2023-05-14T05:53:57;18.0;;;10.0;;
23360;SDS011;11852;50.082;18.554;2023-05-14T05:55:04;14.0;;;10.0;;
23360;SDS011;11852;50.082;18.554;2023-05-14T05:56:11;15.0;;;10.0;;
23360;SDS011;11852;50.082;18.554;2023-05-14T05:57:18;15.0;;;10.0;;
23360;SDS011;11852;50.082;18.554;2023-05-14T05:58:26;15.0;;;10.0;;
23360;SDS011;11852;50.082;18.554;2023-05-14T05:59:33;15.0;;;9.0;;
23360;SDS011;11852;50.082;18.554;2023-05-14T06:00:40;14.0;;;9.0;;
23360;SDS011;11852;50.082;18.554;2023-05-14T06:01:47;15.0;;;9.0;;
23360;SDS011;11852;50.082;18.554;2023-05-14T06:02:54;17.0;;;10.0;;
23360;SDS011;11852;50.082;18.554;2023-05-14T06:04:01;15.0;;;10.0;;
23360;SDS011;11852;50.082;18.554;2023-05-14T06:05:09;16.0;;;11.0;;
23360;SDS011;11852;50.082;18.554;2023-05-14T06:06:20;14.0;;;10.0;;
23360;SDS011;11852;50.082;18.554;2023-05-14T06:07:29;16.0;;;10.0;;
23360;SDS011;11852;50.082;18.554;2023-05-14T06:08:36;13.0;;;10.0;;
23360;SDS011;11852;50.082;18.554;2023-05-14T06:09:46;14.0;;;10.0;;
23360;SDS011;11852;50.082;18.554;2023-05-14T06:10:52;14.0;;;11.0;;
23360;SDS011;11852;50.082;18.554;2023-05-14T06:12:00;14.0;;;10.0;;
23360;SDS011;11852;50.082;18.554;2023-05-14T06:13:07;14.0;;;10.0;;
23360;SDS011;11852;50.082;18.554;2023-05-14T06:14:14;17.0;;;11.0;;
23360;SDS011;11852;50.082;18.554;2023-05-14T06:15:22;15.0;;;11.0;;
23360;SDS011;11852;50.082;18.554;2023-05-14T06:16:33;16.0;;;10.0;;
23360;SDS011;11852;50.082;18.554;2023-05-14T06:17:40;16.0;;;11.0;;
23360;SDS011;11852;50.082;18.554;2023-05-14T06:18:47;16.0;;;10.0;;
23360;SDS011;11852;50.082;18.554;2023-05-14T06:19:55;14.0;;;10.0;;
23360;SDS011;11852;50.082;18.554;2023-05-14T06:21:02;15.0;;;10.0;;
23360;SDS011;11852;50.082;18.554;2023-05-14T06:22:12;16.0;;;11.0;;
23360;SDS011;11852;50.082;18.554;2023-05-14T06:23:19;15.0;;;10.0;;
23360;SDS011;11852;50.082;18.554;2023-05-14T06:24:28;14.0;;;10.0;;
23360;SDS011;11852;50.082;18.554;2023-05-14T06:25:34;15.0;;;11.0;;
23360;SDS011;11852;50.082;18.554;2023-05-14T06:26:41;13.0;;;10.0;;
23360;SDS011;11852;50.082;18.554;2023-05-14T06:27:48;16.0;;;11.0;;
23360;SDS011;11852;50.082;18.554;2023-05-14T06:28:55;15.0;;;11.0;;
23360;SDS011;11852;50.082;18.554;2023-05-14T06:30:02;16.0;;;11.0;;
23360;SDS011;11852;50.082;18.554;2023-05-14T06:31:09;15.0;;;11.0;;
23360;SDS011;11852;50.082;18.554;2023-05-14T06:32:16;14.0;;;10.0;;
23360;SDS011;11852;50.082;18.554;2023-05-14T06:33:23;15.0;;;10.0;;
23360;SDS011;11852;50.082;18.554;2023-05-14T06:34:30;15.0;;;11.0;;
23360;SDS011;11852;50.082;18.554;2023-05-14T06:35:37;16.0;;;11.0;;
23360;SDS011;11852;50.082;18.554;2023-05-14T06:36:44;15.0;;;11.0;;
23360;SDS011;11852;50.082;18.554;2023-05-14T06:37:51;15.0;;;11.0;;
23360;SDS011;11852;50.082;18.554;2023-05-14T06:38:58;16.0;;;11.0;;
23360;SDS011;11852;50.082;18.554;2023-05-14T06:40:05;15.0;;;11.0;;
23360;SDS011;11852;50.082;18.554;2023-05-14T06:41:12;16.0;;;12.0;;
23360;SDS011;11852;50.082;18.554;2023-05-14T06:42:19;16.0;;;11.0;;
23360;SDS011;11852;50.082;18.554;2023-05-14T06:43:26;17.0;;;11.0;;
23360;SDS011;11852;50.082;18.554;2023-05-14T06:44:32;15.0;;;11.0;;
23360;SDS011;11852;50.082;18.554;2023-05-14T06:45:39;14.0;;;10.0;;
23360;SDS011;11852;50.082;18.554;2023-05-14T06:46:46;15.0;;;11.0;;
23360;SDS011;11852;50.082;18.554;2023-05-14T06:47:53;15.0;;;11.0;;
23360;SDS011;11852;50.082;18.554;2023-05-14T06:49:00;14.0;;;10.0;;
23360;SDS011;11852;50.082;18.554;2023-05-14T06:50:06;14.0;;;10.0;;